Terminal Aerodrome Forecast
Issued by NWS

Home | Current Version | Previous Version | Text Only | Print | Product List | Glossary On
Versions: 1 2 3 4 5 6 7 8 9 10 11 12 13 14 15 16 17 18 19 20 21
998
FTUS46 KLOX 251741
TAFWJF
TAF
KWJF 251741Z 2518/2618 23018G26KT 6SM FU SKC
     FM252100 24022G32KT 4SM FU SCT045
     FM260000 24022G32KT 5SM FU SCT025 BKN035
     FM260400 24014KT 6SM FU SCT020 SCT200
     FM260800 25010KT P6SM SCT200=

USA.gov is the U.S. government's official web portal to all federal, state and local government web resources and services.